Adair, Iowa
Current Conditions -  °F | °C
As of 4:15 AM on Saturday 22 Nov 2014 (Local Time) from KADU Reporting Station
Haze Haze  
Wind Chill: 31°   Ceiling: 200
Heat Index: 37°   Visibility: 1mi
Dew Point: 32°   Wind: 9mph
Humidity: 81%   Direction: 200°SSW
Pressure: 29.91"   Gusts: NA
Location:  41.5°N, 94.64°W
Report Text: KADU 221015Z AUTO 20008KT 1SM HZ OVC002 03/00 A2991 RMK AO2
Loading
Personal Weather Stations






























Interactive Weather Map New forecast layout! Learn more

10-Day Weather Forecast

Advertisements
Track Severe Weather on mobile